Terminal Aerodrome Forecast
Issued by NWS

Home | Current Version | Previous Version | Text Only | Print | Product List | Glossary On
Versions: 1 2 3 4 5 6 7 8 9 10 11 12
000
FTUS44 KLZK 041736
TAFBPK
TAF
KBPK 041736Z 0418/0518 20005KT P6SM FEW050 BKN250
     FM042100 21005KT P6SM VCTS SCT050CB BKN250
      TEMPO 0423/0503 5SM TSRA BKN050CB OVC250
     FM050300 VRB03KT P6SM -SHRA BKN050 OVC100
     FM050900 VRB04KT 5SM -SHRA BR OVC050
     FM051300 16007KT P6SM SCT050 BKN250=

USA.gov is the U.S. government's official web portal to all federal, state and local government web resources and services.